Terminal Aerodrome Forecast
Issued by NWS Pueblo, CO

Home | Current Version | Previous Version | Text Only | Print | Product List | Glossary On
Versions: 1 2 3 4 5 6 7 8 9 10 11 12 13 14 15 16 17 18 19 20 21 22 23 24 25 26 27 28 29 30 31 32 33 34 35 36 37
000
FTUS45 KPUB 011741
TAFPUB
TAF
KPUB 011741Z 0118/0218 12008KT P6SM SCT090 BKN150
     FM012100 16012KT P6SM VCTS SCT050CB BKN090
      TEMPO 0122/0202 VRB15G25KT -SHRA BKN050
     FM020200 36020G30KT P6SM VCSH SCT050 BKN090
     FM020600 35014G24KT P6SM SCT060 BKN110
     FM021200 33008KT P6SM FEW110=

USA.gov is the U.S. government's official web portal to all federal, state and local government web resources and services.